Time;durP1;ratioP1;P1;durP2;ratioP2;P2;SDS_P1;SDS_P2;PMS_P1;PMS_P2;Temp;Humidity;BMP_temperature;BMP_pressure;BME280_temperature;BME280_humidity;BME280_pressure;Samples;Min_cycle;Max_cycle;Signal;HPM_P1;HPM_P2
2022/12/31 10:09:42;;;;;;;4.65;3.22;;;;;;;16.17;60.70;100547.47;6132518;22;1282457;-40
2022/12/31 10:12:34;;;;;;;5.93;3.53;;;;;;;16.18;60.35;100543.81;6207519;23;20112;-41
2022/12/31 10:15:20;;;;;;;8.25;3.10;;;;;;;16.19;60.86;100544.63;6212826;23;20135;-40
2022/12/31 10:18:03;;;;;;;6.47;3.83;;;;;;;16.20;60.05;100552.53;6215133;23;20026;-39
2022/12/31 10:20:45;;;;;;;5.53;2.92;;;;;;;16.19;61.08;100548.16;6214490;23;20016;-41
2022/12/31 10:23:36;;;;;;;5.30;3.05;;;;;;;16.20;60.30;100563.22;6214506;23;20615;-40
2022/12/31 10:26:12;;;;;;;9.65;3.83;;;;;;;16.21;60.67;100564.06;6212943;23;20027;-41
2022/12/31 10:28:45;;;;;;;4.93;3.22;;;;;;;16.20;61.49;100573.91;6212938;23;20025;-41
2022/12/31 10:31:22;;;;;;;6.38;3.20;;;;;;;16.22;60.68;100565.75;6212971;23;20112;-41
2022/12/31 10:34:04;;;;;;;8.02;3.60;;;;;;;16.22;61.33;100557.72;6211619;23;20031;-41
2022/12/31 10:37:07;;;;;;;6.35;3.90;;;;;;;16.21;60.96;100559.56;6213727;23;20025;-41
2022/12/31 10:39:42;;;;;;;7.47;3.35;;;;;;;16.24;61.14;100550.38;6134787;23;20028;-41
2022/12/31 10:42:46;;;;;;;6.38;3.60;;;;;;;16.25;61.48;100544.06;6214197;23;20064;-41
2022/12/31 10:45:18;;;;;;;6.50;3.63;;;;;;;16.26;61.84;100546.56;6215868;23;20023;-41
2022/12/31 10:48:19;;;;;;;5.32;3.13;;;;;;;16.27;61.03;100552.75;6215007;23;20265;-41
2022/12/31 10:51:17;;;;;;;7.30;3.47;;;;;;;16.28;62.21;100549.09;6215346;23;20021;-42
2022/12/31 10:53:52;;;;;;;5.55;3.05;;;;;;;16.30;61.69;100555.13;6214617;23;20027;-41
2022/12/31 10:56:44;;;;;;;6.13;3.28;;;;;;;16.31;61.87;100553.31;6214007;23;20029;-41
2022/12/31 10:59:39;;;;;;;10.52;4.00;;;;;;;16.31;61.62;100556.81;6215262;23;20284;-41
2022/12/31 11:02:33;;;;;;;6.35;3.65;;;;;;;16.32;61.94;100561.16;6215711;23;20016;-41
2022/12/31 11:05:31;;;;;;;6.63;3.53;;;;;;;16.33;62.22;100562.88;6214623;23;20028;-41
2022/12/31 11:08:22;;;;;;;6.32;3.38;;;;;;;16.34;61.06;100564.53;6213376;23;20031;-41
2022/12/31 11:11:04;;;;;;;6.32;3.63;;;;;;;16.35;62.07;100565.38;6214256;23;20056;-41
2022/12/31 11:14:06;;;;;;;7.43;3.67;;;;;;;16.35;61.16;100578.75;6215657;23;20466;-41
2022/12/31 11:16:45;;;;;;;8.98;5.07;;;;;;;16.36;61.17;100583.09;6122524;23;20097;-42
2022/12/31 11:19:30;;;;;;;10.60;4.93;;;;;;;16.35;61.40;100562.72;6204420;23;20021;-42
2022/12/31 11:22:12;;;;;;;8.63;4.22;;;;;;;16.37;60.86;100563.41;6213756;23;20043;-42
2022/12/31 11:25:19;;;;;;;8.68;4.43;;;;;;;16.38;61.41;100567.78;6210330;23;20519;-42
2022/12/31 11:27:49;;;;;;;9.02;4.93;;;;;;;16.39;61.82;100570.28;6128228;23;20813;-34
2022/12/31 11:30:35;;;;;;;11.45;6.10;;;;;;;16.43;62.49;100565.47;6121851;23;20026;-35
2022/12/31 11:33:40;;;;;;;13.38;7.07;;;;;;;16.46;62.28;100562.50;6110986;23;20692;-35
2022/12/31 11:36:33;;;;;;;17.83;9.85;;;;;;;16.51;61.75;100552.19;6111081;23;20101;-34
2022/12/31 11:39:02;;;;;;;;;;;;;;;16.51;62.22;100560.22;6112873;23;20065;-35
2022/12/31 11:41:42;;;;;;;47.75;26.67;;;;;;;16.53;61.89;100561.75;6113731;23;20049;-35
2022/12/31 11:44:38;;;;;;;41.03;23.40;;;;;;;16.55;61.92;100564.28;6111502;23;20071;-35
2022/12/31 11:47:33;;;;;;;43.03;23.27;;;;;;;16.54;61.92;100560.75;6116199;23;20022;-34
2022/12/31 11:50:28;;;;;;;45.40;23.40;;;;;;;16.59;61.79;100552.28;6116454;23;20031;-35
2022/12/31 11:53:36;;;;;;;51.15;27.20;;;;;;;16.57;62.29;100537.38;6118086;23;20030;-34
2022/12/31 11:56:24;;;;;;;45.28;23.75;;;;;;;16.59;62.55;100536.22;6118080;23;20037;-34
2022/12/31 11:58:54;;;;;;;184.65;99.35;;;;;;;16.63;62.47;100542.13;6115314;23;20026;-35
2022/12/31 12:01:25;;;;;;;172.65;89.97;;;;;;;16.61;62.28;100531.56;6115441;23;20028;-35
2022/12/31 12:03:52;;;;;;;112.43;59.15;;;;;;;16.62;61.97;100535.94;6118324;23;20089;-35
2022/12/31 12:06:24;;;;;;;115.03;61.60;;;;;;;16.66;62.56;100539.97;6117170;23;20109;-35
2022/12/31 12:08:52;;;;;;;116.78;58.08;;;;;;;16.68;62.85;100542.50;6133381;23;20026;-35
2022/12/31 12:11:26;;;;;;;116.85;63.55;;;;;;;16.70;62.75;100525.31;6147275;23;20056;-35
2022/12/31 12:13:53;;;;;;;119.70;64.07;;;;;;;16.70;62.87;100527.16;6148724;23;20032;-35
2022/12/31 12:16:21;;;;;;;124.43;66.10;;;;;;;16.72;62.91;100542.06;6147795;23;20140;-34
2022/12/31 12:19:09;;;;;;;133.48;72.13;;;;;;;16.71;62.82;100524.31;6148843;23;20056;-35
2022/12/31 12:21:45;;;;;;;132.90;71.30;;;;;;;16.72;62.41;100526.00;6147916;23;20377;-35
2022/12/31 12:24:27;;;;;;;109.35;59.60;;;;;;;16.73;63.13;100508.97;6144089;23;20104;-34
2022/12/31 12:26:54;;;;;;;139.38;74.90;;;;;;;16.75;62.63;100525.72;6141877;23;20069;-34
2022/12/31 12:29:31;;;;;;;105.68;55.05;;;;;;;16.76;62.71;100522.06;6143360;23;20025;-34
2022/12/31 12:32:00;;;;;;;153.65;80.85;;;;;;;16.77;62.17;100515.72;6147855;23;20025;-35
2022/12/31 12:34:31;;;;;;;143.98;77.13;;;;;;;16.79;62.55;100504.84;6148261;23;20031;-36
2022/12/31 12:36:57;;;;;;;108.32;56.63;;;;;;;16.82;63.00;100517.91;6149036;23;20028;-36
2022/12/31 12:39:26;;;;;;;123.15;70.47;;;;;;;16.83;63.34;100513.41;6147177;23;20460;-36
2022/12/31 12:42:08;;;;;;;119.55;63.83;;;;;;;16.84;63.07;100501.69;6148067;23;20672;-36
2022/12/31 12:44:35;;;;;;;110.78;59.13;;;;;;;16.87;62.70;100528.16;6149689;23;20045;-37
2022/12/31 12:47:04;;;;;;;99.95;53.85;;;;;;;16.90;63.05;100541.25;6137800;23;20326;-34
2022/12/31 12:49:38;;;;;;;145.43;77.32;;;;;;;16.91;62.20;100545.59;6148564;23;20129;-35
2022/12/31 12:52:50;;;;;;;119.13;63.00;;;;;;;16.90;62.29;100542.09;6149286;23;20032;-34
2022/12/31 12:55:26;;;;;;;125.95;68.63;;;;;;;16.93;62.24;100543.63;6106510;23;20037;-34
2022/12/31 12:58:32;;;;;;;117.32;62.85;;;;;;;16.94;62.52;100561.34;6147263;23;20108;-35
2022/12/31 13:01:57;;;;;;;111.65;60.92;;;;;;;16.95;62.75;100552.31;6147457;23;20033;-34
2022/12/31 13:04:27;;;;;;;;;;;;;;;16.96;62.25;100549.47;6028322;23;20054;-34
2022/12/31 13:07:17;;;;;;;103.43;55.78;;;;;;;16.99;62.29;100559.06;6149880;23;19925;-35
2022/12/31 13:10:02;;;;;;;110.90;60.70;;;;;;;16.99;62.53;100554.53;6147267;23;20025;-34
2022/12/31 13:12:44;;;;;;;104.35;56.83;;;;;;;16.99;62.58;100553.69;6146733;23;20289;-35
2022/12/31 13:16:03;;;;;;;78.80;43.83;;;;;;;16.99;62.13;100543.81;6147714;23;20037;-42
2022/12/31 13:18:57;;;;;;;108.03;57.88;;;;;;;17.00;61.94;100550.03;6150050;23;20040;-43
2022/12/31 13:21:43;;;;;;;;;;;;;;;16.99;62.09;100548.34;6148991;23;20025;-43
2022/12/31 13:24:23;;;;;;;92.40;49.95;;;;;;;17.02;62.44;100564.09;6147905;23;19924;-42
2022/12/31 13:27:22;;;;;;;82.95;45.50;;;;;;;17.02;62.00;100564.09;6148006;23;20036;-43
2022/12/31 13:29:51;;;;;;;85.70;48.05;;;;;;;17.03;62.01;100553.22;6149651;23;20200;-43
2022/12/31 13:32:31;;;;;;;85.97;46.67;;;;;;;17.03;62.54;100576.50;6148454;23;20026;-43
2022/12/31 13:35:22;;;;;;;81.22;45.60;;;;;;;17.01;61.86;100573.97;6141489;23;20026;-44
2022/12/31 13:37:52;;;;;;;86.70;45.78;;;;;;;17.04;61.57;100572.81;6148267;23;20025;-43
2022/12/31 13:44:13;;;;;;;72.70;40.38;;;;;;;17.06;62.13;100565.47;6080432;23;20178;-43
2022/12/31 13:46:43;;;;;;;81.10;43.15;;;;;;;17.06;62.08;100573.53;6084489;23;20061;-42
2022/12/31 13:49:30;;;;;;;65.18;35.58;;;;;;;17.06;61.91;100564.66;6087081;23;20269;-42
2022/12/31 13:52:17;;;;;;;54.97;29.73;;;;;;;17.09;62.92;100564.34;6085969;23;20105;-42
2022/12/31 13:54:48;;;;;;;96.85;52.72;;;;;;;17.10;62.33;100574.88;6083191;23;20109;-41
2022/12/31 13:57:38;;;;;;;89.68;49.42;;;;;;;17.10;62.61;100572.22;6085031;23;20030;-43
2022/12/31 14:00:18;;;;;;;89.45;48.72;;;;;;;17.11;62.21;100581.91;6086924;23;20396;-43
2022/12/31 14:03:09;;;;;;;94.00;51.60;;;;;;;17.11;62.08;100576.56;6084979;23;20030;-43
2022/12/31 14:06:16;;;;;;;90.43;50.97;;;;;;;17.11;62.38;100578.41;6061424;23;20074;-43
2022/12/31 14:08:44;;;;;;;94.03;53.10;;;;;;;17.12;61.72;100578.25;6065558;23;20101;-43
2022/12/31 14:11:44;;;;;;;87.07;48.83;;;;;;;17.11;62.49;100583.75;6083469;23;20030;-43
2022/12/31 14:14:48;;;;;;;83.43;47.38;;;;;;;17.13;62.01;100603.22;6110516;23;20030;-42
2022/12/31 14:17:24;;;;;;;74.85;39.97;;;;;;;17.12;62.12;100594.31;6135103;23;20028;-42
2022/12/31 14:20:17;;;;;;;85.32;46.25;;;;;;;17.14;61.92;100596.84;6117624;23;20300;-42
2022/12/31 14:23:16;;;;;;;92.25;49.35;;;;;;;17.14;61.63;100605.72;6050338;23;20021;-42
2022/12/31 14:25:48;;;;;;;65.55;36.42;;;;;;;17.14;61.95;100619.13;6110087;23;20030;-43
2022/12/31 14:28:20;;;;;;;74.35;41.47;;;;;;;17.15;61.54;100618.13;6145882;23;20060;-42
2022/12/31 14:30:51;;;;;;;75.63;42.40;;;;;;;17.15;61.68;100609.25;6145657;23;20025;-43
2022/12/31 14:33:50;;;;;;;61.75;35.83;;;;;;;17.14;62.52;100608.41;6144534;23;20464;-43
2022/12/31 14:36:43;;;;;;;70.38;40.45;;;;;;;17.16;61.87;100600.19;6145653;23;20026;-43
2022/12/31 14:39:31;;;;;;;87.70;48.10;;;;;;;17.16;61.81;100590.31;6143813;23;20026;-43
2022/12/31 14:42:19;;;;;;;79.35;43.08;;;;;;;17.15;61.70;100596.69;6145628;23;20267;-43
2022/12/31 14:45:03;;;;;;;78.80;44.05;;;;;;;17.14;61.87;100592.34;6148607;23;20030;-43
2022/12/31 14:47:45;;;;;;;96.03;50.55;;;;;;;17.13;61.64;100598.69;6144487;23;20025;-43
2022/12/31 14:50:20;;;;;;;85.07;47.35;;;;;;;17.14;61.84;100610.25;6145518;23;20480;-43
2022/12/31 14:52:49;;;;;;;85.63;47.33;;;;;;;17.14;61.83;100618.28;6147217;23;20150;-43
2022/12/31 14:55:27;;;;;;;88.35;50.22;;;;;;;17.13;61.76;100606.72;6145448;23;20405;-43
2022/12/31 14:57:56;;;;;;;84.43;49.15;;;;;;;17.14;62.05;100616.44;6145883;23;20029;-43
2022/12/31 15:01:17;;;;;;;81.38;44.45;;;;;;;17.13;61.91;100619.28;6144939;23;20029;-43
2022/12/31 15:03:45;;;;;;;77.30;41.15;;;;;;;17.16;61.52;100626.97;6081706;23;20032;-43
2022/12/31 15:06:39;;;;;;;69.45;39.25;;;;;;;17.14;61.58;100631.66;6144326;23;20497;-43
2022/12/31 15:09:18;;;;;;;70.18;39.92;;;;;;;17.15;62.12;100634.19;6142665;23;20278;-43
2022/12/31 15:12:17;;;;;;;70.00;38.72;;;;;;;17.14;61.75;100620.94;6146142;23;20029;-43
2022/12/31 15:15:16;;;;;;;68.45;38.78;;;;;;;17.15;61.71;100611.91;6146034;23;20327;-43
2022/12/31 15:18:09;;;;;;;73.28;40.65;;;;;;;17.14;61.67;100612.91;6144049;23;20029;-43
2022/12/31 15:20:49;;;;;;;65.53;36.55;;;;;;;17.15;61.46;100611.91;6144853;23;20406;-43
2022/12/31 15:23:36;;;;;;;63.08;34.45;;;;;;;17.15;61.78;100601.19;6146387;23;20033;-43
2022/12/31 15:26:04;;;;;;;69.03;40.22;;;;;;;17.17;61.39;100601.91;6147733;23;20025;-42
2022/12/31 15:28:35;;;;;;;65.88;36.15;;;;;;;17.16;61.03;100581.44;6147160;23;20120;-43
2022/12/31 15:31:20;;;;;;;63.13;34.28;;;;;;;17.16;61.66;100584.13;6144421;23;20033;-43
2022/12/31 15:33:59;;;;;;;62.58;34.85;;;;;;;17.16;61.36;100598.34;6146152;23;20089;-42
2022/12/31 15:36:29;;;;;;;67.72;37.30;;;;;;;17.16;61.52;100597.53;6145366;23;20138;-43
2022/12/31 15:39:06;;;;;;;63.55;35.88;;;;;;;17.16;61.41;100587.66;6143192;23;20025;-43
2022/12/31 15:41:43;;;;;;;60.38;34.65;;;;;;;17.16;60.92;100587.66;6146250;23;20093;-42
2022/12/31 15:44:45;;;;;;;63.38;35.60;;;;;;;17.17;61.11;100591.19;6144974;23;20029;-43
2022/12/31 15:47:35;;;;;;;54.67;31.30;;;;;;;17.15;61.13;100595.84;6143034;23;20064;-42
2022/12/31 15:50:05;;;;;;;52.92;30.65;;;;;;;17.18;61.21;100598.22;6144169;23;20056;-39
2022/12/31 15:52:41;;;;;;;61.03;33.70;;;;;;;17.21;61.23;100605.97;6149378;23;20117;-43
2022/12/31 15:55:19;;;;;;;57.63;32.45;;;;;;;17.23;61.03;100601.28;6150100;23;20100;-42
2022/12/31 15:57:46;;;;;;;56.63;29.92;;;;;;;17.24;61.09;100590.41;6151636;23;20025;-41
2022/12/31 16:00:19;;;;;;;54.67;29.20;;;;;;;17.27;60.93;100589.25;6152715;23;20100;-42
2022/12/31 16:02:47;;;;;;;50.88;29.83;;;;;;;17.28;60.36;100590.94;6152786;23;20022;-42
2022/12/31 16:05:24;;;;;;;52.50;28.13;;;;;;;17.29;60.54;100589.97;6153594;23;20376;-42
2022/12/31 16:07:55;;;;;;;44.83;24.77;;;;;;;17.30;60.52;100586.28;6150016;23;20688;-42
2022/12/31 16:10:31;;;;;;;44.47;25.92;;;;;;;17.31;60.63;100589.78;6152825;23;20029;-41
2022/12/31 16:12:58;;;;;;;45.80;24.13;;;;;;;17.31;60.32;100585.28;6152766;23;20029;-41
2022/12/31 16:15:31;;;;;;;41.13;23.90;;;;;;;17.31;60.39;100569.19;6153673;23;20068;-40
2022/12/31 16:18:04;;;;;;;45.50;24.55;;;;;;;17.31;60.47;100571.88;6154352;23;20112;-42
2022/12/31 16:20:33;;;;;;;39.35;22.38;;;;;;;17.31;60.36;100550.44;6153358;23;20021;-44
2022/12/31 16:23:02;;;;;;;41.80;22.67;;;;;;;17.32;60.15;100553.97;6153897;23;20084;-42
2022/12/31 16:25:31;;;;;;;38.13;20.88;;;;;;;17.30;60.20;100567.53;6155588;23;20029;-42
2022/12/31 16:28:00;;;;;;;35.45;19.05;;;;;;;17.31;60.54;100560.31;6154076;23;20065;-43
2022/12/31 16:30:34;;;;;;;35.97;19.75;;;;;;;17.28;59.99;100556.94;6155204;23;20025;-43
2022/12/31 16:33:05;;;;;;;35.30;20.02;;;;;;;17.27;60.13;100568.66;6154396;23;20057;-43
2022/12/31 16:35:35;;;;;;;36.65;19.30;;;;;;;17.27;59.88;100574.03;6153498;23;20029;-42
2022/12/31 16:38:16;;;;;;;32.33;18.20;;;;;;;17.26;59.94;100561.63;6151015;23;20495;-43
2022/12/31 16:41:29;;;;;;;30.52;16.65;;;;;;;17.26;59.62;100575.03;6154473;23;20082;-42
2022/12/31 16:43:56;;;;;;;31.63;16.98;;;;;;;17.27;59.98;100568.66;6150981;23;20022;-43
2022/12/31 16:46:26;;;;;;;28.05;15.18;;;;;;;17.26;59.45;100574.19;6154676;23;20021;-42
2022/12/31 16:49:06;;;;;;;29.83;15.48;;;;;;;17.25;59.31;100576.03;6154293;23;20076;-42
2022/12/31 16:51:36;;;;;;;32.53;16.75;;;;;;;17.25;59.85;100551.94;6153056;23;20258;-42
2022/12/31 16:54:03;;;;;;;30.13;17.08;;;;;;;17.24;60.23;100555.56;6151897;23;20031;-42
2022/12/31 16:56:36;;;;;;;30.98;15.82;;;;;;;17.24;59.99;100552.91;6149974;23;20671;-42
2022/12/31 16:59:17;;;;;;;27.25;15.63;;;;;;;17.23;59.92;100563.78;6154717;23;20413;-41
2022/12/31 17:01:45;;;;;;;28.67;15.45;;;;;;;17.23;59.54;100564.63;6155185;23;20018;-41
2022/12/31 17:04:17;;;;;;;27.33;15.00;;;;;;;17.23;59.93;100572.66;6154524;23;20036;-41
2022/12/31 17:06:44;;;;;;;29.60;15.07;;;;;;;17.23;59.52;100561.94;6153747;23;20100;-41
2022/12/31 17:09:19;;;;;;;29.40;14.48;;;;;;;17.22;59.57;100560.25;6151786;23;20105;-41
2022/12/31 17:12:06;;;;;;;28.58;13.85;;;;;;;17.21;59.62;100563.09;6155666;23;20021;-41
2022/12/31 17:14:47;;;;;;;31.25;13.45;;;;;;;17.20;59.64;100548.84;6155091;23;20116;-41
2022/12/31 17:17:25;;;;;;;25.48;12.90;;;;;;;17.21;59.39;100553.22;6155682;23;20334;-41
2022/12/31 17:19:57;;;;;;;28.15;14.35;;;;;;;17.20;59.51;100551.53;6155405;23;20121;-41
2022/12/31 17:22:33;;;;;;;27.70;15.98;;;;;;;17.20;59.71;100556.03;6155745;23;20021;-41
2022/12/31 17:25:22;;;;;;;31.67;17.65;;;;;;;17.19;59.73;100565.09;6152666;23;20045;-41
2022/12/31 17:28:24;;;;;;;27.27;16.50;;;;;;;17.18;59.26;100536.63;6154292;23;20028;-42
2022/12/31 17:30:51;;;;;;;34.10;17.77;;;;;;;17.21;59.55;100520.25;6145572;23;20097;-40
2022/12/31 17:33:20;;;;;;;29.35;15.63;;;;;;;17.19;59.71;100535.63;6152841;23;20022;-40
2022/12/31 17:35:53;;;;;;;36.50;19.25;;;;;;;17.18;59.22;100532.09;6152227;23;20056;-41
2022/12/31 17:38:22;;;;;;;28.05;15.95;;;;;;;17.18;59.72;100540.16;6150835;23;20283;-40
2022/12/31 17:40:52;;;;;;;31.08;15.88;;;;;;;17.16;59.36;100542.13;6153378;23;20104;-41
2022/12/31 17:43:22;;;;;;;29.50;14.50;;;;;;;17.17;59.42;100553.69;6150495;23;20096;-41
2022/12/31 17:45:53;;;;;;;23.73;14.63;;;;;;;17.18;59.42;100563.41;6155936;23;20112;-41
2022/12/31 17:48:23;;;;;;;23.05;12.50;;;;;;;17.16;58.82;100554.69;6153792;23;20021;-41
2022/12/31 17:50:55;;;;;;;24.80;13.25;;;;;;;17.15;59.57;100564.53;6155029;23;20025;-41
2022/12/31 17:53:22;;;;;;;26.98;12.10;;;;;;;17.16;59.00;100560.03;6153441;23;20029;-41
2022/12/31 17:55:52;;;;;;;22.77;12.00;;;;;;;17.16;58.72;100557.34;6155420;23;20026;-41
2022/12/31 17:58:21;;;;;;;24.48;13.32;;;;;;;17.15;59.08;100561.88;6155124;23;20032;-42
2022/12/31 18:00:55;;;;;;;20.40;10.75;;;;;;;17.15;59.14;100564.53;6155530;23;20341;-41
2022/12/31 18:03:22;;;;;;;21.73;12.05;;;;;;;17.15;58.76;100569.06;6155438;23;20024;-41
2022/12/31 18:05:49;;;;;;;20.50;10.43;;;;;;;17.13;59.17;100555.84;6155146;23;20033;-41
2022/12/31 18:08:15;;;;;;;21.50;10.77;;;;;;;17.15;58.50;100555.69;6155198;23;20022;-41
2022/12/31 18:10:43;;;;;;;17.92;10.13;;;;;;;17.15;58.56;100561.03;6152875;23;20033;-41
2022/12/31 18:13:18;;;;;;;23.10;10.60;;;;;;;17.14;58.82;100560.19;6154918;23;20021;-41
2022/12/31 18:15:45;;;;;;;19.25;9.75;;;;;;;17.15;58.69;100558.34;6153179;23;20021;-41
2022/12/31 18:18:32;;;;;;;19.20;9.95;;;;;;;17.14;58.73;100570.06;6152784;23;20061;-41
2022/12/31 18:21:01;;;;;;;17.25;9.23;;;;;;;17.14;58.39;100568.22;6154069;23;20334;-41
2022/12/31 18:23:40;;;;;;;18.27;10.35;;;;;;;17.13;58.62;100560.38;6154170;23;20281;-42
2022/12/31 18:26:13;;;;;;;20.70;10.18;;;;;;;17.14;58.86;100576.25;6150779;23;20124;-41
2022/12/31 18:28:39;;;;;;;20.92;11.07;;;;;;;17.14;58.77;100570.91;6151005;23;20027;-41
2022/12/31 18:31:11;;;;;;;19.98;10.18;;;;;;;17.13;58.70;100561.19;6151556;23;20567;-41
2022/12/31 18:33:38;;;;;;;18.67;9.25;;;;;;;17.15;58.83;100571.75;6151339;23;20101;-41
2022/12/31 18:36:10;;;;;;;16.92;9.20;;;;;;;17.13;58.55;100574.59;6155441;23;20041;-42
2022/12/31 18:38:38;;;;;;;22.80;11.57;;;;;;;17.13;58.40;100584.47;6151988;23;20055;-41
2022/12/31 18:41:06;;;;;;;15.50;9.70;;;;;;;17.13;58.23;100574.59;6152427;23;20080;-41
2022/12/31 18:43:33;;;;;;;15.88;9.27;;;;;;;17.12;57.94;100572.03;6156834;23;20392;-41
2022/12/31 18:45:59;;;;;;;16.35;9.65;;;;;;;17.13;57.87;100576.44;6156487;23;20061;-40
2022/12/31 18:48:26;;;;;;;17.33;9.73;;;;;;;17.12;58.39;100572.88;6156542;23;20150;-40
2022/12/31 18:50:52;;;;;;;17.98;9.32;;;;;;;17.12;57.78;100564.84;6155362;23;20044;-45
2022/12/31 18:53:21;;;;;;;17.42;9.85;;;;;;;17.12;58.62;100578.25;6154918;23;20408;-42
2022/12/31 18:55:51;;;;;;;15.95;8.95;;;;;;;17.12;58.47;100574.72;6156435;23;20058;-42
2022/12/31 18:58:18;;;;;;;16.02;9.27;;;;;;;17.12;57.85;100575.56;6156756;23;20100;-43
2022/12/31 19:00:46;;;;;;;18.08;8.80;;;;;;;17.12;58.14;100585.44;6156027;23;20025;-42
2022/12/31 19:03:15;;;;;;;19.58;10.00;;;;;;;17.12;58.31;100580.91;6156772;23;20030;-42
2022/12/31 19:05:42;;;;;;;20.85;10.23;;;;;;;17.11;57.65;100581.91;6045569;23;20180;-43
2022/12/31 19:08:10;;;;;;;18.00;9.30;;;;;;;17.12;57.88;100602.34;6043025;23;20029;-43
2022/12/31 19:10:37;;;;;;;18.70;8.43;;;;;;;17.11;58.41;100606.03;6131332;23;20329;-42
2022/12/31 19:13:03;;;;;;;15.40;8.80;;;;;;;17.11;57.81;100600.66;6156249;23;20323;-43
2022/12/31 19:15:41;;;;;;;16.85;8.57;;;;;;;17.12;57.95;100621.09;6156539;23;20021;-43
2022/12/31 19:18:08;;;;;;;18.38;8.98;;;;;;;17.11;57.92;100602.50;6156713;23;20314;-42
2022/12/31 19:20:34;;;;;;;16.75;8.50;;;;;;;17.12;58.05;100607.69;6154654;23;20416;-41
2022/12/31 19:23:01;;;;;;;15.25;7.82;;;;;;;17.11;57.70;100594.47;6127914;23;20021;-42
2022/12/31 19:25:33;;;;;;;15.45;7.78;;;;;;;17.10;57.48;100588.28;6156219;23;20036;-41
2022/12/31 19:28:01;;;;;;;17.77;8.50;;;;;;;17.11;57.45;100581.91;6155899;23;20346;-42
2022/12/31 19:30:31;;;;;;;16.85;9.60;;;;;;;17.11;57.62;100583.75;6155080;23;20104;-41
2022/12/31 19:32:58;;;;;;;19.35;9.02;;;;;;;17.11;57.27;100573.06;6155483;23;20534;-41
2022/12/31 19:35:26;;;;;;;17.00;8.55;;;;;;;17.11;57.11;100584.59;6156441;23;20136;-42
2022/12/31 19:37:54;;;;;;;23.42;8.50;;;;;;;17.11;57.30;100594.47;6154588;23;20036;-42
2022/12/31 19:40:24;;;;;;;18.38;8.18;;;;;;;17.10;57.04;100599.00;6154694;23;20305;-42
2022/12/31 19:42:53;;;;;;;19.20;8.15;;;;;;;17.10;57.02;100593.63;6156796;23;20101;-42
2022/12/31 19:45:25;;;;;;;13.70;6.40;;;;;;;17.10;57.20;100603.50;6156981;23;20021;-42
2022/12/31 19:47:53;;;;;;;16.85;8.75;;;;;;;17.09;57.30;100609.88;6155636;23;20289;-42
2022/12/31 19:50:23;;;;;;;16.35;7.43;;;;;;;17.11;57.17;100627.44;6155647;23;20477;-42
2022/12/31 19:52:53;;;;;;;16.35;7.55;;;;;;;17.10;56.76;100609.69;6143556;23;20028;-43
2022/12/31 19:55:25;;;;;;;18.42;8.88;;;;;;;17.10;56.95;100607.03;6028454;23;20351;-42
2022/12/31 19:57:53;;;;;;;20.73;10.07;;;;;;;17.11;56.59;100614.06;6036526;23;20419;-42
2022/12/31 20:00:20;;;;;;;19.42;10.23;;;;;;;17.11;57.12;100618.56;6155675;23;20021;-45
2022/12/31 20:02:47;;;;;;;20.92;10.48;;;;;;;17.11;56.39;100611.38;6155773;23;20027;-42
2022/12/31 20:05:15;;;;;;;24.15;11.07;;;;;;;17.11;57.17;100616.72;6156011;23;20292;-43
2022/12/31 20:07:42;;;;;;;19.77;9.43;;;;;;;17.11;56.44;100615.91;6155184;23;20045;-42
2022/12/31 20:10:09;;;;;;;17.13;9.50;;;;;;;17.11;56.98;100610.53;6155199;23;20104;-44
2022/12/31 20:12:37;;;;;;;28.15;11.35;;;;;;;17.10;56.89;100615.06;6156479;23;20025;-44
2022/12/31 20:15:09;;;;;;;;;;;;;;;17.10;56.96;100628.44;6157013;23;20142;-43
2022/12/31 20:17:36;;;;;;;17.85;10.10;;;;;;;17.13;56.85;100622.78;6155051;23;20343;-42
2022/12/31 20:20:05;;;;;;;20.52;10.50;;;;;;;17.12;56.08;100629.13;6155277;23;20108;-41
2022/12/31 20:22:32;;;;;;;16.80;9.32;;;;;;;17.11;56.20;100640.84;6156027;23;20017;-42
2022/12/31 20:24:58;;;;;;;16.48;9.15;;;;;;;17.11;56.15;100645.34;6154046;23;20026;-41
2022/12/31 20:27:25;;;;;;;19.83;10.38;;;;;;;17.10;56.26;100630.28;6156583;23;20032;-42
2022/12/31 20:29:51;;;;;;;18.90;8.55;;;;;;;17.11;56.51;100615.91;6156175;23;20022;-42
2022/12/31 20:32:18;;;;;;;16.17;8.60;;;;;;;17.11;56.35;100626.59;6156992;23;20044;-42
2022/12/31 20:34:44;;;;;;;18.42;9.32;;;;;;;17.11;56.61;100643.50;6157732;23;20036;-42
2022/12/31 20:37:11;;;;;;;17.50;9.38;;;;;;;17.11;56.36;100631.97;6158239;23;20334;-43
2022/12/31 20:39:38;;;;;;;17.27;8.88;;;;;;;17.10;56.78;100649.88;6154531;23;20028;-42
2022/12/31 20:42:04;;;;;;;15.98;8.65;;;;;;;17.10;56.59;100625.78;6157078;23;20096;-41
2022/12/31 20:44:31;;;;;;;28.58;13.55;;;;;;;17.10;56.72;100633.81;6157523;23;20027;-41
2022/12/31 20:46:57;;;;;;;20.85;11.57;;;;;;;17.10;56.62;100635.66;6157702;23;20390;-40
2022/12/31 20:49:24;;;;;;;23.92;11.90;;;;;;;17.10;56.79;100631.13;6156532;23;20076;-41
2022/12/31 20:52:10;;;;;;;21.67;12.13;;;;;;;17.10;56.85;100646.34;6157306;23;20033;-41
2022/12/31 20:54:37;;;;;;;22.52;12.13;;;;;;;17.10;56.63;100636.47;6156122;23;20021;-41
2022/12/31 20:57:03;;;;;;;20.73;11.52;;;;;;;17.09;56.77;100634.81;6158185;23;20030;-41
2022/12/31 20:59:30;;;;;;;21.13;11.13;;;;;;;17.09;56.74;100650.03;6156474;23;20061;-41
2022/12/31 21:01:57;;;;;;;29.17;13.00;;;;;;;17.09;56.47;100639.31;6158399;23;20076;-41
2022/12/31 21:04:44;;;;;;;21.38;11.57;;;;;;;17.09;56.27;100642.84;6157319;23;20033;-41
2022/12/31 21:07:10;;;;;;;20.90;10.95;;;;;;;17.09;56.53;100640.16;6158345;23;20022;-42
2022/12/31 21:09:37;;;;;;;19.63;10.93;;;;;;;17.09;56.74;100650.03;6154861;23;20030;-41
2022/12/31 21:14:49;;;;;;;17.42;9.73;;;;;;;17.09;56.98;100658.06;6156021;23;20025;-41
2022/12/31 21:17:15;;;;;;;17.80;9.70;;;;;;;17.09;57.04;100650.88;6157748;23;20028;-42
2022/12/31 21:19:42;;;;;;;18.58;8.88;;;;;;;17.07;56.96;100658.19;6157315;23;20064;-41
2022/12/31 21:22:08;;;;;;;18.25;9.63;;;;;;;17.08;56.96;100659.88;6157683;23;20117;-41
2022/12/31 21:24:35;;;;;;;21.27;9.05;;;;;;;17.08;57.10;100657.19;6155179;23;20109;-41
2022/12/31 21:27:02;;;;;;;16.70;8.98;;;;;;;17.08;56.21;100662.56;6158116;23;20030;-42
2022/12/31 21:29:28;;;;;;;22.15;9.32;;;;;;;17.08;56.29;100673.25;6157375;23;20108;-42
2022/12/31 21:32:00;;;;;;;19.27;8.95;;;;;;;17.08;56.74;100670.59;6157554;23;20036;-42
2022/12/31 21:34:26;;;;;;;20.08;10.57;;;;;;;17.09;56.28;100676.81;6157558;23;20021;-43
2022/12/31 21:36:53;;;;;;;17.90;9.70;;;;;;;17.08;56.70;100678.63;6157248;23;20390;-42
2022/12/31 21:39:20;;;;;;;19.38;9.02;;;;;;;17.08;56.07;100683.97;6156367;23;20028;-41
2022/12/31 21:41:49;;;;;;;15.85;8.68;;;;;;;17.09;56.32;100685.69;6156923;23;20022;-46
2022/12/31 21:44:21;;;;;;;15.57;8.60;;;;;;;17.10;56.59;100673.13;6157274;23;20027;-42
2022/12/31 21:46:53;;;;;;;16.00;8.90;;;;;;;17.09;56.57;100691.03;6156952;23;20263;-42
2022/12/31 21:49:40;;;;;;;17.27;8.73;;;;;;;17.11;56.50;100694.38;6157304;23;20033;-42
2022/12/31 21:52:25;;;;;;;20.27;8.32;;;;;;;17.09;56.80;100691.03;6157435;23;20068;-42
2022/12/31 21:57:45;;;;;;;18.92;10.35;;;;;;;17.09;56.30;100676.81;6157374;23;20022;-42
2022/12/31 22:03:28;;;;;;;21.58;11.30;;;;;;;17.09;56.65;100682.16;6156149;23;20072;-42
2022/12/31 22:06:13;;;;;;;17.70;8.70;;;;;;;17.08;56.34;100685.81;6157017;23;20429;-42
2022/12/31 22:08:41;;;;;;;19.30;8.95;;;;;;;17.08;56.71;100675.94;6156008;23;20029;-42
2022/12/31 22:11:09;;;;;;;20.73;10.50;;;;;;;17.08;56.01;100672.44;6156054;23;20414;-42
2022/12/31 22:13:37;;;;;;;23.50;10.85;;;;;;;17.08;56.83;100681.28;6155586;23;20096;-42
2022/12/31 22:16:04;;;;;;;15.98;9.20;;;;;;;17.08;55.87;100681.28;6155418;23;20025;-42